createdAt,value
2023-02-28T00:00:27.926Z,4.23
2023-02-28T00:03:20.599Z,4.22
2023-02-28T00:05:53.454Z,4.17
2023-02-28T00:08:28.434Z,4.15
2023-02-28T00:11:05.947Z,4.16
2023-02-28T00:13:41.998Z,4.15
2023-02-28T00:16:17.068Z,4.12
2023-02-28T00:18:49.948Z,4.11
2023-02-28T00:21:23.594Z,4.10
2023-02-28T00:23:56.098Z,4.07
2023-02-28T00:26:28.818Z,4.06
2023-02-28T00:29:01.827Z,4.03
2023-02-28T00:31:34.262Z,4.03
2023-02-28T00:34:06.968Z,4.01
2023-02-28T00:36:39.911Z,4.00
2023-02-28T00:39:12.291Z,4.01
2023-02-28T00:41:44.654Z,3.99
2023-02-28T00:44:17.156Z,3.96
2023-02-28T00:46:49.548Z,3.96
2023-02-28T00:49:22.496Z,3.90
2023-02-28T00:51:55.873Z,3.88
2023-02-28T00:54:46.895Z,3.87
2023-02-28T00:57:20.821Z,3.87
2023-02-28T00:59:55.632Z,3.86
2023-02-28T01:02:27.988Z,3.86
2023-02-28T01:05:00.731Z,3.83
2023-02-28T01:07:35.998Z,3.78
2023-02-28T01:10:11.271Z,3.74
2023-02-28T01:12:43.869Z,3.73
2023-02-28T01:15:16.832Z,3.74
2023-02-28T01:17:51.208Z,3.71
2023-02-28T01:20:23.919Z,3.65
2023-02-28T01:22:56.330Z,3.62
2023-02-28T01:25:29.043Z,3.59
2023-02-28T01:28:01.666Z,3.53
2023-02-28T01:30:34.297Z,3.48
2023-02-28T01:33:06.666Z,3.52
2023-02-28T01:35:39.801Z,3.54
2023-02-28T01:38:21.702Z,3.53
2023-02-28T01:40:56.080Z,3.52
2023-02-28T01:43:30.604Z,3.49
2023-02-28T01:46:03.316Z,3.48
2023-02-28T01:48:42.720Z,3.48
2023-02-28T01:51:20.472Z,3.46
2023-02-28T01:53:57.234Z,3.43
2023-02-28T01:56:34.001Z,3.42
2023-02-28T01:59:07.311Z,3.40
2023-02-28T02:01:40.085Z,3.37
2023-02-28T02:04:12.836Z,3.32
2023-02-28T02:06:49.171Z,3.24
2023-02-28T02:09:22.486Z,3.33
2023-02-28T02:11:57.864Z,3.32
2023-02-28T02:14:51.841Z,3.34
2023-02-28T02:17:33.263Z,3.31
2023-02-28T02:20:50.776Z,3.30
2023-02-28T02:23:53.996Z,3.28
2023-02-28T02:26:53.812Z,3.19
2023-02-28T02:29:59.962Z,3.26
2023-02-28T02:33:00.956Z,3.14
2023-02-28T02:35:42.720Z,3.22
2023-02-28T02:38:24.418Z,3.17
2023-02-28T02:41:05.539Z,3.16
2023-02-28T02:43:43.072Z,3.15
2023-02-28T02:46:21.273Z,3.12
2023-02-28T02:48:57.556Z,3.01
2023-02-28T02:51:33.564Z,3.01
2023-02-28T02:54:11.079Z,3.01
2023-02-28T02:56:49.000Z,3.04
2023-02-28T02:59:24.962Z,3.00
2023-02-28T03:02:00.702Z,2.98
2023-02-28T03:04:37.397Z,2.97
2023-02-28T03:07:10.205Z,2.95
2023-02-28T03:09:52.835Z,2.95
2023-02-28T03:12:34.706Z,2.86
2023-02-28T03:15:18.732Z,2.93
2023-02-28T03:18:06.749Z,2.90
2023-02-28T03:20:52.257Z,2.90
2023-02-28T03:23:32.341Z,2.86
2023-02-28T03:26:10.327Z,2.85
2023-02-28T03:28:49.624Z,2.84
2023-02-28T03:31:29.189Z,2.80
2023-02-28T03:34:11.278Z,2.77
2023-02-28T03:36:49.285Z,2.74
2023-02-28T03:39:26.583Z,2.70
2023-02-28T03:42:03.539Z,2.56
2023-02-28T03:44:40.508Z,2.63
2023-02-28T03:47:16.273Z,2.63
2023-02-28T03:49:53.207Z,2.59
2023-02-28T03:52:29.438Z,2.57
2023-02-28T03:55:08.181Z,2.56
2023-02-28T03:57:47.973Z,2.55
2023-02-28T04:00:29.208Z,2.55
2023-02-28T04:03:02.356Z,2.54
2023-02-28T04:05:46.295Z,2.51
2023-02-28T04:08:18.639Z,2.51
2023-02-28T04:10:57.390Z,2.50
2023-02-28T04:13:30.638Z,2.49
2023-02-28T04:16:18.715Z,2.49
2023-02-28T04:19:02.997Z,2.47
2023-02-28T04:21:37.106Z,2.46
2023-02-28T04:24:15.020Z,2.39
2023-02-28T04:26:49.672Z,2.38
2023-02-28T04:29:25.605Z,2.41
2023-02-28T04:32:00.196Z,2.36
2023-02-28T04:34:34.557Z,2.39
2023-02-28T04:37:13.845Z,2.30
2023-02-28T04:39:46.943Z,2.38
2023-02-28T04:42:19.294Z,2.34
2023-02-28T04:44:51.827Z,2.33
2023-02-28T04:47:24.499Z,2.30
2023-02-28T04:49:56.889Z,2.32
2023-02-28T04:52:31.262Z,2.31
2023-02-28T04:55:03.959Z,2.31
2023-02-28T04:57:36.297Z,2.28
2023-02-28T05:00:12.571Z,2.31
2023-02-28T05:02:45.256Z,2.18
2023-02-28T05:05:19.195Z,2.27
2023-02-28T05:07:51.657Z,2.30
2023-02-28T05:10:24.167Z,2.26
2023-02-28T05:12:56.946Z,2.25
2023-02-28T05:15:29.478Z,2.21
2023-02-28T05:18:02.751Z,2.21
2023-02-28T05:20:35.167Z,2.20
2023-02-28T05:23:07.559Z,2.19
2023-02-28T05:25:40.014Z,2.19
2023-02-28T05:28:12.714Z,2.20
2023-02-28T05:30:45.428Z,2.18
2023-02-28T05:33:18.231Z,2.18
2023-02-28T05:35:52.905Z,2.17
2023-02-28T05:38:25.919Z,2.15
2023-02-28T05:40:58.383Z,2.01
2023-02-28T05:43:30.950Z,2.11
2023-02-28T05:46:06.848Z,2.09
2023-02-28T05:48:41.417Z,2.10
2023-02-28T05:51:13.945Z,1.98
2023-02-28T05:53:46.501Z,2.09
2023-02-28T05:56:19.367Z,2.09
2023-02-28T05:58:51.781Z,2.12
2023-02-28T06:01:28.138Z,2.13
2023-02-28T06:04:00.709Z,2.12
2023-02-28T06:06:37.369Z,2.11
2023-02-28T06:09:09.987Z,2.10
2023-02-28T06:11:42.486Z,2.08
2023-02-28T06:14:20.355Z,2.09
2023-02-28T06:16:53.317Z,2.09
2023-02-28T06:19:27.462Z,2.08
2023-02-28T06:22:03.593Z,2.10
2023-02-28T06:24:36.102Z,2.11
2023-02-28T06:27:08.467Z,2.03
2023-02-28T06:29:41.738Z,2.13
2023-02-28T06:32:14.591Z,2.16
2023-02-28T06:34:47.508Z,2.18
2023-02-28T06:37:20.285Z,2.18
2023-02-28T06:39:52.823Z,2.22
2023-02-28T06:42:31.886Z,2.24
2023-02-28T06:45:10.485Z,2.26
2023-02-28T06:47:44.416Z,2.30
2023-02-28T06:50:20.695Z,2.33
2023-02-28T06:52:55.355Z,2.36
2023-02-28T06:55:30.607Z,2.38
2023-02-28T06:58:15.902Z,2.38
2023-02-28T07:00:52.852Z,2.40
2023-02-28T07:03:25.235Z,2.42
2023-02-28T07:05:58.493Z,2.48
2023-02-28T07:08:32.638Z,2.52
2023-02-28T07:11:05.707Z,2.54
2023-02-28T07:13:38.333Z,2.53
2023-02-28T07:16:13.522Z,2.60
2023-02-28T07:18:46.167Z,2.54
2023-02-28T07:21:19.413Z,2.65
2023-02-28T07:23:52.865Z,2.70
2023-02-28T07:26:25.620Z,2.63
2023-02-28T07:28:58.036Z,2.76
2023-02-28T07:31:30.870Z,2.79
2023-02-28T07:34:03.608Z,2.85
2023-02-28T07:36:36.039Z,2.90
2023-02-28T07:39:10.357Z,2.96
2023-02-28T07:41:44.698Z,2.99
2023-02-28T07:44:17.773Z,3.00
2023-02-28T07:46:50.349Z,3.08
2023-02-28T07:49:22.926Z,3.16
2023-02-28T07:51:56.040Z,3.21
2023-02-28T07:54:28.501Z,3.24
2023-02-28T07:57:00.941Z,3.32
2023-02-28T07:59:33.649Z,3.38
2023-02-28T08:02:06.230Z,3.42
2023-02-28T08:04:38.941Z,3.32
2023-02-28T08:07:14.695Z,3.47
2023-02-28T08:09:47.786Z,3.53
2023-02-28T08:12:20.472Z,3.56
2023-02-28T08:14:53.023Z,3.53
2023-02-28T08:17:25.423Z,3.70
2023-02-28T08:19:57.968Z,3.77
2023-02-28T08:22:30.639Z,3.77
2023-02-28T08:25:03.021Z,3.91
2023-02-28T08:27:35.401Z,4.01
2023-02-28T08:30:09.893Z,4.04
2023-02-28T08:32:42.675Z,4.15
2023-02-28T08:35:15.743Z,4.18
2023-02-28T08:37:49.507Z,4.28
2023-02-28T08:40:22.272Z,4.34
2023-02-28T08:42:54.717Z,4.39
2023-02-28T08:45:27.323Z,4.48
2023-02-28T08:47:59.872Z,4.49
2023-02-28T08:50:32.518Z,4.55
2023-02-28T08:53:05.604Z,4.60
2023-02-28T08:55:38.734Z,4.63
2023-02-28T08:58:11.316Z,4.60
2023-02-28T09:00:43.864Z,4.82
2023-02-28T09:03:16.236Z,4.84
2023-02-28T09:05:58.526Z,4.85
2023-02-28T09:08:32.426Z,4.93
2023-02-28T09:11:05.346Z,4.91
2023-02-28T09:13:38.071Z,5.05
2023-02-28T09:16:17.232Z,5.17
2023-02-28T09:18:49.944Z,5.19
2023-02-28T09:21:23.036Z,5.22
2023-02-28T09:23:55.997Z,5.28
2023-02-28T09:26:35.292Z,5.35
2023-02-28T09:29:15.589Z,5.42
2023-02-28T09:31:48.437Z,5.46
2023-02-28T09:34:21.002Z,5.57
2023-02-28T09:36:56.216Z,5.67
2023-02-28T09:39:29.766Z,5.70
2023-02-28T09:42:04.029Z,5.75
2023-02-28T09:44:41.575Z,5.85
2023-02-28T09:47:28.076Z,5.94
2023-02-28T09:50:06.947Z,6.09
2023-02-28T09:52:40.620Z,6.13
2023-02-28T09:55:32.713Z,6.10
2023-02-28T09:58:12.277Z,6.02
2023-02-28T10:00:44.791Z,6.08
2023-02-28T10:03:32.507Z,6.35
2023-02-28T10:06:13.478Z,6.44
2023-02-28T10:08:54.249Z,6.53
2023-02-28T10:11:29.343Z,6.64
2023-02-28T10:14:06.910Z,6.68
2023-02-28T10:16:44.572Z,6.88
2023-02-28T10:19:21.297Z,6.97
2023-02-28T10:22:00.999Z,7.03
2023-02-28T10:24:38.256Z,7.11
2023-02-28T10:27:18.804Z,7.18
2023-02-28T10:29:53.372Z,7.24
2023-02-28T10:32:25.630Z,7.29
2023-02-28T10:35:02.108Z,7.22
2023-02-28T10:37:39.186Z,7.37
2023-02-28T10:40:31.166Z,7.46
2023-02-28T10:43:05.546Z,7.57
2023-02-28T10:45:39.368Z,7.66
2023-02-28T10:48:35.562Z,7.76
2023-02-28T10:51:10.372Z,7.83
2023-02-28T10:54:00.441Z,7.85
2023-02-28T10:56:34.579Z,7.86
2023-02-28T10:59:30.642Z,7.84
2023-02-28T11:02:37.619Z,7.68
2023-02-28T11:05:29.026Z,7.94
2023-02-28T11:08:09.120Z,8.17
2023-02-28T11:11:06.035Z,8.33
2023-02-28T11:14:00.998Z,8.41
2023-02-28T11:16:54.996Z,8.42
2023-02-28T11:19:52.410Z,8.59
2023-02-28T11:22:47.741Z,8.59
2023-02-28T11:25:26.138Z,8.58
2023-02-28T11:28:02.256Z,8.69
2023-02-28T11:30:40.317Z,8.73
2023-02-28T11:33:32.640Z,8.82
2023-02-28T11:36:12.045Z,8.68
2023-02-28T11:38:45.091Z,8.80
2023-02-28T11:41:44.045Z,8.86
2023-02-28T11:44:41.127Z,8.92
2023-02-28T11:47:24.758Z,9.05
2023-02-28T11:50:13.123Z,9.12
2023-02-28T11:52:53.971Z,9.14
2023-02-28T11:55:30.881Z,9.24
2023-02-28T11:58:34.229Z,9.24
2023-02-28T12:01:19.354Z,9.19
2023-02-28T12:04:03.721Z,9.33
2023-02-28T12:06:41.332Z,9.37
2023-02-28T12:09:31.167Z,9.36
2023-02-28T12:12:14.845Z,9.35
2023-02-28T12:15:08.141Z,9.35
2023-02-28T12:17:51.184Z,9.44
2023-02-28T12:20:34.820Z,9.51
2023-02-28T12:23:24.241Z,9.53
2023-02-28T12:26:10.535Z,9.45
2023-02-28T12:28:48.457Z,9.49
2023-02-28T12:31:26.454Z,9.46
2023-02-28T12:34:02.934Z,9.44
2023-02-28T12:36:38.927Z,9.45
2023-02-28T12:39:18.930Z,9.47
2023-02-28T12:41:57.013Z,9.27
2023-02-28T12:44:35.332Z,9.43
2023-02-28T12:47:18.091Z,9.40
2023-02-28T12:49:54.524Z,9.35
2023-02-28T12:52:33.826Z,9.34
2023-02-28T12:55:15.637Z,9.40
2023-02-28T12:57:54.649Z,9.56
2023-02-28T13:00:35.918Z,9.52
2023-02-28T13:03:42.622Z,9.44
2023-02-28T13:06:32.229Z,9.46
2023-02-28T13:09:16.611Z,9.29
2023-02-28T13:11:52.150Z,9.50
2023-02-28T13:14:37.970Z,9.57
2023-02-28T13:17:21.494Z,9.63
2023-02-28T13:20:02.224Z,9.64
2023-02-28T13:22:46.474Z,9.61
2023-02-28T13:25:53.176Z,9.58
2023-02-28T13:29:09.316Z,9.62
2023-02-28T13:32:15.103Z,9.56
2023-02-28T13:35:11.386Z,9.55
2023-02-28T13:37:50.933Z,9.59
2023-02-28T13:40:38.747Z,9.66
2023-02-28T13:43:13.131Z,9.57
2023-02-28T13:46:12.668Z,9.62
2023-02-28T13:48:45.992Z,9.62
2023-02-28T13:51:46.693Z,9.58
2023-02-28T13:54:31.921Z,9.57
2023-02-28T13:57:20.938Z,9.48
2023-02-28T14:00:10.230Z,9.68
2023-02-28T14:03:13.246Z,9.69
2023-02-28T14:05:47.078Z,9.76
2023-02-28T14:08:24.738Z,9.85
2023-02-28T14:11:08.897Z,9.91
2023-02-28T14:13:48.413Z,9.97
2023-02-28T14:16:27.617Z,9.93
2023-02-28T14:19:04.679Z,9.93
2023-02-28T14:21:42.729Z,9.89
